sensor_id;sensor_type;location;lat;lon;timestamp;temperature;humidity
67603;DHT22;54417;47.454;18.918;2022-07-09T00:03:13;17.53;64.40
67603;DHT22;54417;47.454;18.918;2022-07-09T00:08:37;17.42;64.56
67603;DHT22;54417;47.454;18.918;2022-07-09T00:14:02;17.30;64.79
67603;DHT22;54417;47.454;18.918;2022-07-09T00:19:25;17.24;65.34
67603;DHT22;54417;47.454;18.918;2022-07-09T00:24:49;17.35;64.76
67603;DHT22;54417;47.454;18.918;2022-07-09T00:30:14;17.18;65.18
67603;DHT22;54417;47.454;18.918;2022-07-09T00:35:38;17.08;65.46
67603;DHT22;54417;47.454;18.918;2022-07-09T00:41:02;16.97;66.56
67603;DHT22;54417;47.454;18.918;2022-07-09T00:46:27;16.79;66.71
67603;DHT22;54417;47.454;18.918;2022-07-09T00:51:51;16.75;66.76
67603;DHT22;54417;47.454;18.918;2022-07-09T00:57:16;16.76;66.96
67603;DHT22;54417;47.454;18.918;2022-07-09T01:02:43;16.77;66.74
67603;DHT22;54417;47.454;18.918;2022-07-09T01:08:07;16.69;67.06
67603;DHT22;54417;47.454;18.918;2022-07-09T01:13:31;16.57;67.19
67603;DHT22;54417;47.454;18.918;2022-07-09T01:18:56;16.62;67.26
67603;DHT22;54417;47.454;18.918;2022-07-09T01:24:22;16.75;66.68
67603;DHT22;54417;47.454;18.918;2022-07-09T01:29:46;16.66;66.88
67603;DHT22;54417;47.454;18.918;2022-07-09T01:35:11;16.66;67.04
67603;DHT22;54417;47.454;18.918;2022-07-09T01:40:37;16.52;67.56
67603;DHT22;54417;47.454;18.918;2022-07-09T01:46:00;16.60;67.58
67603;DHT22;54417;47.454;18.918;2022-07-09T01:51:24;16.44;67.93
67603;DHT22;54417;47.454;18.918;2022-07-09T01:56:49;16.28;68.33
67603;DHT22;54417;47.454;18.918;2022-07-09T02:02:13;16.22;68.83
67603;DHT22;54417;47.454;18.918;2022-07-09T02:07:37;16.09;69.22
67603;DHT22;54417;47.454;18.918;2022-07-09T02:13:02;15.90;69.77
67603;DHT22;54417;47.454;18.918;2022-07-09T02:18:26;15.91;69.78
67603;DHT22;54417;47.454;18.918;2022-07-09T02:23:49;15.76;70.20
67603;DHT22;54417;47.454;18.918;2022-07-09T02:29:14;15.73;70.37
67603;DHT22;54417;47.454;18.918;2022-07-09T02:34:38;15.94;69.67
67603;DHT22;54417;47.454;18.918;2022-07-09T02:40:03;16.00;69.42
67603;DHT22;54417;47.454;18.918;2022-07-09T02:45:28;15.87;69.91
67603;DHT22;54417;47.454;18.918;2022-07-09T02:50:52;15.87;70.21
67603;DHT22;54417;47.454;18.918;2022-07-09T02:56:16;15.74;70.59
67603;DHT22;54417;47.454;18.918;2022-07-09T03:01:41;15.59;71.41
67603;DHT22;54417;47.454;18.918;2022-07-09T03:07:04;15.64;71.27
67603;DHT22;54417;47.454;18.918;2022-07-09T03:12:28;15.56;71.73
67603;DHT22;54417;47.454;18.918;2022-07-09T03:17:53;15.70;70.58
67603;DHT22;54417;47.454;18.918;2022-07-09T03:23:17;15.84;69.20
67603;DHT22;54417;47.454;18.918;2022-07-09T03:28:41;16.08;69.19
67603;DHT22;54417;47.454;18.918;2022-07-09T03:34:06;16.33;69.09
67603;DHT22;54417;47.454;18.918;2022-07-09T03:39:30;16.29;68.98
67603;DHT22;54417;47.454;18.918;2022-07-09T03:44:53;16.18;68.97
67603;DHT22;54417;47.454;18.918;2022-07-09T03:50:18;16.57;67.49
67603;DHT22;54417;47.454;18.918;2022-07-09T03:55:42;16.73;67.14
67603;DHT22;54417;47.454;18.918;2022-07-09T04:01:06;16.73;67.57
67603;DHT22;54417;47.454;18.918;2022-07-09T04:06:31;16.80;67.48
67603;DHT22;54417;47.454;18.918;2022-07-09T04:11:55;16.60;67.66
67603;DHT22;54417;47.454;18.918;2022-07-09T04:17:18;16.70;67.24
67603;DHT22;54417;47.454;18.918;2022-07-09T04:22:44;16.70;67.26
67603;DHT22;54417;47.454;18.918;2022-07-09T04:28:07;17.07;66.15
67603;DHT22;54417;47.454;18.918;2022-07-09T04:33:31;16.99;66.14
67603;DHT22;54417;47.454;18.918;2022-07-09T04:38:56;17.48;64.86
67603;DHT22;54417;47.454;18.918;2022-07-09T04:44:20;17.15;66.25
67603;DHT22;54417;47.454;18.918;2022-07-09T04:49:44;16.88;66.70
67603;DHT22;54417;47.454;18.918;2022-07-09T04:55:09;16.59;67.30
67603;DHT22;54417;47.454;18.918;2022-07-09T05:00:33;16.87;67.26
67603;DHT22;54417;47.454;18.918;2022-07-09T05:05:57;17.87;64.96
67603;DHT22;54417;47.454;18.918;2022-07-09T05:11:23;17.93;63.79
67603;DHT22;54417;47.454;18.918;2022-07-09T05:16:47;18.45;61.85
67603;DHT22;54417;47.454;18.918;2022-07-09T05:22:11;18.71;61.21
67603;DHT22;54417;47.454;18.918;2022-07-09T05:27:42;19.05;60.08
67603;DHT22;54417;47.454;18.918;2022-07-09T05:33:06;19.08;60.74
67603;DHT22;54417;47.454;18.918;2022-07-09T05:38:30;19.13;60.30
67603;DHT22;54417;47.454;18.918;2022-07-09T05:43:56;19.36;59.80
67603;DHT22;54417;47.454;18.918;2022-07-09T05:49:20;19.15;60.34
67603;DHT22;54417;47.454;18.918;2022-07-09T05:54:43;19.33;60.12
67603;DHT22;54417;47.454;18.918;2022-07-09T06:00:09;19.68;58.97
67603;DHT22;54417;47.454;18.918;2022-07-09T06:05:33;19.81;58.48
67603;DHT22;54417;47.454;18.918;2022-07-09T06:10:57;19.64;59.19
67603;DHT22;54417;47.454;18.918;2022-07-09T06:16:22;20.04;58.55
67603;DHT22;54417;47.454;18.918;2022-07-09T06:21:46;20.04;57.65
67603;DHT22;54417;47.454;18.918;2022-07-09T06:27:10;20.28;57.01
67603;DHT22;54417;47.454;18.918;2022-07-09T06:32:35;20.47;57.01
67603;DHT22;54417;47.454;18.918;2022-07-09T06:37:59;20.83;55.53
67603;DHT22;54417;47.454;18.918;2022-07-09T06:43:23;20.84;55.40
67603;DHT22;54417;47.454;18.918;2022-07-09T06:48:49;21.35;54.72
67603;DHT22;54417;47.454;18.918;2022-07-09T06:54:13;21.69;53.15
67603;DHT22;54417;47.454;18.918;2022-07-09T06:59:37;21.92;52.68
67603;DHT22;54417;47.454;18.918;2022-07-09T07:05:02;22.07;52.96
67603;DHT22;54417;47.454;18.918;2022-07-09T07:10:27;22.61;53.14
67603;DHT22;54417;47.454;18.918;2022-07-09T07:15:50;22.99;50.37
67603;DHT22;54417;47.454;18.918;2022-07-09T07:21:15;23.14;49.37
67603;DHT22;54417;47.454;18.918;2022-07-09T07:26:39;23.14;50.21
67603;DHT22;54417;47.454;18.918;2022-07-09T07:32:03;23.28;51.08
67603;DHT22;54417;47.454;18.918;2022-07-09T07:37:28;23.47;48.32
67603;DHT22;54417;47.454;18.918;2022-07-09T07:42:53;23.62;48.64
67603;DHT22;54417;47.454;18.918;2022-07-09T07:48:17;23.88;47.28
67603;DHT22;54417;47.454;18.918;2022-07-09T07:53:42;24.28;46.29
67603;DHT22;54417;47.454;18.918;2022-07-09T07:59:06;24.30;45.89
67603;DHT22;54417;47.454;18.918;2022-07-09T08:04:30;24.47;46.37
67603;DHT22;54417;47.454;18.918;2022-07-09T08:09:55;24.56;45.63
67603;DHT22;54417;47.454;18.918;2022-07-09T08:15:19;24.64;44.96
67603;DHT22;54417;47.454;18.918;2022-07-09T08:20:43;24.77;46.11
67603;DHT22;54417;47.454;18.918;2022-07-09T08:26:08;24.87;44.47
67603;DHT22;54417;47.454;18.918;2022-07-09T08:31:32;25.28;43.59
67603;DHT22;54417;47.454;18.918;2022-07-09T08:36:55;25.05;43.08
67603;DHT22;54417;47.454;18.918;2022-07-09T08:42:20;25.73;41.08
67603;DHT22;54417;47.454;18.918;2022-07-09T08:47:45;25.61;40.89
67603;DHT22;54417;47.454;18.918;2022-07-09T08:53:09;25.35;40.75
67603;DHT22;54417;47.454;18.918;2022-07-09T08:58:35;25.74;41.65
67603;DHT22;54417;47.454;18.918;2022-07-09T09:03:59;25.59;40.42
67603;DHT22;54417;47.454;18.918;2022-07-09T09:09:25;26.10;39.49
67603;DHT22;54417;47.454;18.918;2022-07-09T09:14:50;25.92;39.02
67603;DHT22;54417;47.454;18.918;2022-07-09T09:20:14;25.74;38.61
67603;DHT22;54417;47.454;18.918;2022-07-09T09:25:38;26.00;39.48
67603;DHT22;54417;47.454;18.918;2022-07-09T09:31:17;26.56;38.73
67603;DHT22;54417;47.454;18.918;2022-07-09T09:36:42;26.25;38.74
67603;DHT22;54417;47.454;18.918;2022-07-09T09:42:06;25.94;38.59
67603;DHT22;54417;47.454;18.918;2022-07-09T09:47:38;26.20;38.21
67603;DHT22;54417;47.454;18.918;2022-07-09T09:53:02;26.35;36.51
67603;DHT22;54417;47.454;18.918;2022-07-09T09:58:26;26.42;37.15
67603;DHT22;54417;47.454;18.918;2022-07-09T10:03:53;26.24;35.11
67603;DHT22;54417;47.454;18.918;2022-07-09T10:09:17;26.31;35.44
67603;DHT22;54417;47.454;18.918;2022-07-09T10:14:42;26.22;36.58
67603;DHT22;54417;47.454;18.918;2022-07-09T10:20:08;25.80;36.80
67603;DHT22;54417;47.454;18.918;2022-07-09T10:25:43;26.10;37.59
67603;DHT22;54417;47.454;18.918;2022-07-09T10:31:10;26.20;37.62
67603;DHT22;54417;47.454;18.918;2022-07-09T10:36:36;26.25;37.08
67603;DHT22;54417;47.454;18.918;2022-07-09T10:42:01;26.31;35.90
67603;DHT22;54417;47.454;18.918;2022-07-09T10:47:36;26.34;37.08
67603;DHT22;54417;47.454;18.918;2022-07-09T10:53:01;26.21;35.87
67603;DHT22;54417;47.454;18.918;2022-07-09T10:58:25;26.30;36.14
67603;DHT22;54417;47.454;18.918;2022-07-09T11:03:53;26.41;35.91
67603;DHT22;54417;47.454;18.918;2022-07-09T11:09:18;26.10;36.46
67603;DHT22;54417;47.454;18.918;2022-07-09T11:14:45;26.30;35.63
67603;DHT22;54417;47.454;18.918;2022-07-09T11:20:10;25.84;35.18
67603;DHT22;54417;47.454;18.918;2022-07-09T11:25:36;25.87;35.50
67603;DHT22;54417;47.454;18.918;2022-07-09T11:31:00;26.04;35.96
67603;DHT22;54417;47.454;18.918;2022-07-09T11:36:35;26.48;35.74
67603;DHT22;54417;47.454;18.918;2022-07-09T11:42:01;26.51;35.42
67603;DHT22;54417;47.454;18.918;2022-07-09T11:47:35;26.79;32.68
67603;DHT22;54417;47.454;18.918;2022-07-09T11:53:00;26.51;34.12
67603;DHT22;54417;47.454;18.918;2022-07-09T11:58:25;26.47;35.09
67603;DHT22;54417;47.454;18.918;2022-07-09T12:03:49;26.78;34.89
67603;DHT22;54417;47.454;18.918;2022-07-09T12:09:13;27.10;34.55
67603;DHT22;54417;47.454;18.918;2022-07-09T12:14:40;26.89;34.50
67603;DHT22;54417;47.454;18.918;2022-07-09T12:20:04;26.78;35.18
67603;DHT22;54417;47.454;18.918;2022-07-09T12:25:31;26.41;35.32
67603;DHT22;54417;47.454;18.918;2022-07-09T12:30:56;26.07;35.81
67603;DHT22;54417;47.454;18.918;2022-07-09T12:36:20;26.21;36.19
67603;DHT22;54417;47.454;18.918;2022-07-09T12:42:04;25.89;35.16
67603;DHT22;54417;47.454;18.918;2022-07-09T12:47:29;25.74;35.73
67603;DHT22;54417;47.454;18.918;2022-07-09T12:52:53;25.83;36.65
67603;DHT22;54417;47.454;18.918;2022-07-09T12:58:17;26.20;36.25
67603;DHT22;54417;47.454;18.918;2022-07-09T13:03:42;26.14;34.49
67603;DHT22;54417;47.454;18.918;2022-07-09T13:09:25;26.30;34.38
67603;DHT22;54417;47.454;18.918;2022-07-09T13:14:49;26.63;34.90
67603;DHT22;54417;47.454;18.918;2022-07-09T13:20:22;26.56;34.53
67603;DHT22;54417;47.454;18.918;2022-07-09T13:25:45;26.58;34.23
67603;DHT22;54417;47.454;18.918;2022-07-09T13:31:10;26.53;33.78
67603;DHT22;54417;47.454;18.918;2022-07-09T13:36:35;26.78;33.26
67603;DHT22;54417;47.454;18.918;2022-07-09T13:41:59;26.45;34.21
67603;DHT22;54417;47.454;18.918;2022-07-09T13:47:22;26.99;33.34
67603;DHT22;54417;47.454;18.918;2022-07-09T13:52:47;26.68;33.23
67603;DHT22;54417;47.454;18.918;2022-07-09T13:58:11;26.79;33.25
67603;DHT22;54417;47.454;18.918;2022-07-09T14:03:35;27.06;33.77
67603;DHT22;54417;47.454;18.918;2022-07-09T14:09:01;26.82;32.89
67603;DHT22;54417;47.454;18.918;2022-07-09T14:14:25;27.19;33.46
67603;DHT22;54417;47.454;18.918;2022-07-09T14:19:48;27.22;33.11
67603;DHT22;54417;47.454;18.918;2022-07-09T14:25:13;26.62;33.13
67603;DHT22;54417;47.454;18.918;2022-07-09T14:30:40;26.63;33.25
67603;DHT22;54417;47.454;18.918;2022-07-09T14:36:05;27.00;32.71
67603;DHT22;54417;47.454;18.918;2022-07-09T14:41:30;26.99;32.31
67603;DHT22;54417;47.454;18.918;2022-07-09T14:46:55;27.41;32.15
67603;DHT22;54417;47.454;18.918;2022-07-09T14:52:20;27.24;31.13
67603;DHT22;54417;47.454;18.918;2022-07-09T14:57:45;27.26;31.04
67603;DHT22;54417;47.454;18.918;2022-07-09T15:03:09;27.75;29.72
67603;DHT22;54417;47.454;18.918;2022-07-09T15:08:33;27.74;30.15
67603;DHT22;54417;47.454;18.918;2022-07-09T15:13:58;27.94;29.61
67603;DHT22;54417;47.454;18.918;2022-07-09T15:19:22;27.80;28.52
67603;DHT22;54417;47.454;18.918;2022-07-09T15:24:46;27.80;29.03
67603;DHT22;54417;47.454;18.918;2022-07-09T15:30:11;27.50;28.47
67603;DHT22;54417;47.454;18.918;2022-07-09T15:35:35;27.40;28.99
67603;DHT22;54417;47.454;18.918;2022-07-09T15:41:04;27.20;29.15
67603;DHT22;54417;47.454;18.918;2022-07-09T15:46:34;26.55;30.29
67603;DHT22;54417;47.454;18.918;2022-07-09T15:51:59;26.17;31.30
67603;DHT22;54417;47.454;18.918;2022-07-09T15:57:22;25.97;31.40
67603;DHT22;54417;47.454;18.918;2022-07-09T16:02:47;25.89;31.10
67603;DHT22;54417;47.454;18.918;2022-07-09T16:08:11;25.56;31.48
67603;DHT22;54417;47.454;18.918;2022-07-09T16:13:35;25.70;31.49
67603;DHT22;54417;47.454;18.918;2022-07-09T16:19:00;25.50;31.71
67603;DHT22;54417;47.454;18.918;2022-07-09T16:24:24;25.35;31.81
67603;DHT22;54417;47.454;18.918;2022-07-09T16:29:47;25.19;32.01
67603;DHT22;54417;47.454;18.918;2022-07-09T16:35:13;25.19;32.51
67603;DHT22;54417;47.454;18.918;2022-07-09T16:40:36;25.22;32.25
67603;DHT22;54417;47.454;18.918;2022-07-09T16:46:02;24.90;33.00
67603;DHT22;54417;47.454;18.918;2022-07-09T16:51:32;24.71;33.29
67603;DHT22;54417;47.454;18.918;2022-07-09T16:56:56;24.61;33.11
67603;DHT22;54417;47.454;18.918;2022-07-09T17:02:19;24.44;33.22
67603;DHT22;54417;47.454;18.918;2022-07-09T17:07:44;24.39;33.09
67603;DHT22;54417;47.454;18.918;2022-07-09T17:13:08;24.29;32.99
67603;DHT22;54417;47.454;18.918;2022-07-09T17:18:32;24.25;32.84
67603;DHT22;54417;47.454;18.918;2022-07-09T17:23:58;24.04;32.94
67603;DHT22;54417;47.454;18.918;2022-07-09T17:29:22;23.92;32.81
67603;DHT22;54417;47.454;18.918;2022-07-09T17:34:46;23.78;32.87
67603;DHT22;54417;47.454;18.918;2022-07-09T17:40:11;23.68;32.68
67603;DHT22;54417;47.454;18.918;2022-07-09T17:45:35;23.77;32.98
67603;DHT22;54417;47.454;18.918;2022-07-09T17:50:59;23.55;33.21
67603;DHT22;54417;47.454;18.918;2022-07-09T17:56:24;23.43;33.59
67603;DHT22;54417;47.454;18.918;2022-07-09T18:01:48;23.36;33.41
67603;DHT22;54417;47.454;18.918;2022-07-09T18:07:12;23.30;33.85
67603;DHT22;54417;47.454;18.918;2022-07-09T18:12:37;23.00;34.33
67603;DHT22;54417;47.454;18.918;2022-07-09T18:18:00;22.76;35.29
67603;DHT22;54417;47.454;18.918;2022-07-09T18:23:30;22.71;35.30
67603;DHT22;54417;47.454;18.918;2022-07-09T18:28:55;22.24;40.01
67603;DHT22;54417;47.454;18.918;2022-07-09T18:34:19;21.70;43.60
67603;DHT22;54417;47.454;18.918;2022-07-09T18:39:42;21.08;49.82
67603;DHT22;54417;47.454;18.918;2022-07-09T18:45:08;20.49;48.08
67603;DHT22;54417;47.454;18.918;2022-07-09T18:50:32;20.22;49.25
67603;DHT22;54417;47.454;18.918;2022-07-09T18:55:56;20.08;48.27
67603;DHT22;54417;47.454;18.918;2022-07-09T19:01:21;19.82;49.19
67603;DHT22;54417;47.454;18.918;2022-07-09T19:06:45;19.58;46.90
67603;DHT22;54417;47.454;18.918;2022-07-09T19:12:09;19.31;51.56
67603;DHT22;54417;47.454;18.918;2022-07-09T19:17:35;19.19;54.21
67603;DHT22;54417;47.454;18.918;2022-07-09T19:22:58;18.95;52.68
67603;DHT22;54417;47.454;18.918;2022-07-09T19:28:22;18.51;58.63
67603;DHT22;54417;47.454;18.918;2022-07-09T19:33:47;18.16;57.36
67603;DHT22;54417;47.454;18.918;2022-07-09T19:39:24;17.85;57.69
67603;DHT22;54417;47.454;18.918;2022-07-09T19:44:50;17.68;58.82
67603;DHT22;54417;47.454;18.918;2022-07-09T19:50:16;17.42;56.52
67603;DHT22;54417;47.454;18.918;2022-07-09T19:55:40;17.25;62.18
67603;DHT22;54417;47.454;18.918;2022-07-09T20:01:05;17.17;57.83
67603;DHT22;54417;47.454;18.918;2022-07-09T20:06:31;17.27;57.43
67603;DHT22;54417;47.454;18.918;2022-07-09T20:11:55;17.31;58.02
67603;DHT22;54417;47.454;18.918;2022-07-09T20:17:18;17.32;55.28
67603;DHT22;54417;47.454;18.918;2022-07-09T20:22:44;17.24;56.43
67603;DHT22;54417;47.454;18.918;2022-07-09T20:28:07;17.73;53.16
67603;DHT22;54417;47.454;18.918;2022-07-09T20:33:31;18.21;52.56
67603;DHT22;54417;47.454;18.918;2022-07-09T20:39:02;18.40;51.85
67603;DHT22;54417;47.454;18.918;2022-07-09T20:44:26;18.23;56.07
67603;DHT22;54417;47.454;18.918;2022-07-09T20:49:50;18.21;55.37
67603;DHT22;54417;47.454;18.918;2022-07-09T20:55:15;18.09;53.83
67603;DHT22;54417;47.454;18.918;2022-07-09T21:00:39;18.33;52.27
67603;DHT22;54417;47.454;18.918;2022-07-09T21:06:03;18.34;53.33
67603;DHT22;54417;47.454;18.918;2022-07-09T21:11:28;18.26;52.99
67603;DHT22;54417;47.454;18.918;2022-07-09T21:16:51;18.40;52.47
67603;DHT22;54417;47.454;18.918;2022-07-09T21:22:35;18.69;51.92
67603;DHT22;54417;47.454;18.918;2022-07-09T21:28:00;18.92;52.42
67603;DHT22;54417;47.454;18.918;2022-07-09T21:33:24;19.08;51.81
67603;DHT22;54417;47.454;18.918;2022-07-09T21:38:47;18.98;52.31
67603;DHT22;54417;47.454;18.918;2022-07-09T21:44:12;18.88;53.69
67603;DHT22;54417;47.454;18.918;2022-07-09T21:49:36;19.03;53.30
67603;DHT22;54417;47.454;18.918;2022-07-09T21:55:00;18.91;53.66
67603;DHT22;54417;47.454;18.918;2022-07-09T22:00:46;18.98;54.03
67603;DHT22;54417;47.454;18.918;2022-07-09T22:06:11;19.03;54.85
67603;DHT22;54417;47.454;18.918;2022-07-09T22:11:35;19.31;54.01
67603;DHT22;54417;47.454;18.918;2022-07-09T22:17:00;19.29;54.81
67603;DHT22;54417;47.454;18.918;2022-07-09T22:22:24;19.08;56.33
67603;DHT22;54417;47.454;18.918;2022-07-09T22:27:48;19.03;57.05
67603;DHT22;54417;47.454;18.918;2022-07-09T22:33:13;19.15;57.01
67603;DHT22;54417;47.454;18.918;2022-07-09T22:38:37;19.23;56.82
67603;DHT22;54417;47.454;18.918;2022-07-09T22:44:02;19.15;57.13
67603;DHT22;54417;47.454;18.918;2022-07-09T22:49:28;19.19;57.74
67603;DHT22;54417;47.454;18.918;2022-07-09T22:54:51;19.19;57.81
67603;DHT22;54417;47.454;18.918;2022-07-09T23:00:16;19.30;57.90
67603;DHT22;54417;47.454;18.918;2022-07-09T23:05:41;19.19;58.42
67603;DHT22;54417;47.454;18.918;2022-07-09T23:11:05;19.23;58.48
67603;DHT22;54417;47.454;18.918;2022-07-09T23:16:28;19.10;58.74
67603;DHT22;54417;47.454;18.918;2022-07-09T23:21:53;19.15;57.93
67603;DHT22;54417;47.454;18.918;2022-07-09T23:27:17;19.30;57.78
67603;DHT22;54417;47.454;18.918;2022-07-09T23:32:41;19.03;58.48
67603;DHT22;54417;47.454;18.918;2022-07-09T23:38:06;18.92;59.09
67603;DHT22;54417;47.454;18.918;2022-07-09T23:43:30;18.95;59.19
67603;DHT22;54417;47.454;18.918;2022-07-09T23:48:53;19.00;59.29
67603;DHT22;54417;47.454;18.918;2022-07-09T23:54:18;18.85;60.19
67603;DHT22;54417;47.454;18.918;2022-07-09T23:59:42;18.91;60.39
